sensor_id;sensor_type;location;lat;lon;timestamp;pressure;altitude;pressure_sealevel;temperature;humidity
48644;BME280;34928;37.302;-121.984;2023-05-01T00:02:13;100719.0;;;29.39;24.27
48644;BME280;34928;37.302;-121.984;2023-05-01T00:12:18;100710.0;;;28.86;24.52
48644;BME280;34928;37.302;-121.984;2023-05-01T00:22:23;100725.0;;;29.18;24.54
48644;BME280;34928;37.302;-121.984;2023-05-01T00:32:28;100734.0;;;28.82;24.50
48644;BME280;34928;37.302;-121.984;2023-05-01T00:42:35;100729.0;;;29.18;24.35
48644;BME280;34928;37.302;-121.984;2023-05-01T00:52:37;100732.0;;;28.74;23.78
48644;BME280;34928;37.302;-121.984;2023-05-01T01:02:43;100725.0;;;29.09;23.85
48644;BME280;34928;37.302;-121.984;2023-05-01T01:12:53;100727.0;;;29.17;23.49
48644;BME280;34928;37.302;-121.984;2023-05-01T01:23:23;100725.0;;;29.41;23.51
48644;BME280;34928;37.302;-121.984;2023-05-01T01:43:59;100710.0;;;28.41;21.54
48644;BME280;34928;37.302;-121.984;2023-05-01T01:54:04;100701.0;;;28.06;21.09
48644;BME280;34928;37.302;-121.984;2023-05-01T02:04:08;100682.0;;;27.77;21.89
48644;BME280;34928;37.302;-121.984;2023-05-01T02:14:14;100699.0;;;28.62;23.20
48644;BME280;34928;37.302;-121.984;2023-05-01T02:24:19;100697.0;;;28.64;22.93
48644;BME280;34928;37.302;-121.984;2023-05-01T02:34:27;100694.0;;;28.73;23.15
48644;BME280;34928;37.302;-121.984;2023-05-01T02:44:42;100684.0;;;29.26;23.01
48644;BME280;34928;37.302;-121.984;2023-05-01T02:54:48;100678.0;;;29.08;23.11
48644;BME280;34928;37.302;-121.984;2023-05-01T03:04:53;100679.0;;;29.45;23.22
48644;BME280;34928;37.302;-121.984;2023-05-01T03:14:57;100673.0;;;29.04;22.97
48644;BME280;34928;37.302;-121.984;2023-05-01T03:25:04;100674.0;;;28.38;21.66
48644;BME280;34928;37.302;-121.984;2023-05-01T03:35:13;100672.0;;;27.72;22.81
48644;BME280;34928;37.302;-121.984;2023-05-01T03:45:18;100672.0;;;28.20;23.33
48644;BME280;34928;37.302;-121.984;2023-05-01T03:55:23;100674.0;;;28.14;23.77
48644;BME280;34928;37.302;-121.984;2023-05-01T04:05:29;100681.0;;;28.39;23.55
48644;BME280;34928;37.302;-121.984;2023-05-01T04:15:34;100688.0;;;28.32;22.73
48644;BME280;34928;37.302;-121.984;2023-05-01T04:25:39;100691.0;;;28.18;23.22
48644;BME280;34928;37.302;-121.984;2023-05-01T04:35:43;100693.0;;;28.17;23.50
48644;BME280;34928;37.302;-121.984;2023-05-01T04:45:48;100698.0;;;28.16;23.52
48644;BME280;34928;37.302;-121.984;2023-05-01T04:55:53;100699.0;;;28.04;22.04
48644;BME280;34928;37.302;-121.984;2023-05-01T05:05:58;100698.0;;;27.76;23.38
48644;BME280;34928;37.302;-121.984;2023-05-01T05:16:03;100697.0;;;27.58;23.75
48644;BME280;34928;37.302;-121.984;2023-05-01T05:26:08;100699.0;;;27.72;23.98
48644;BME280;34928;37.302;-121.984;2023-05-01T05:36:13;100699.0;;;27.90;23.70
48644;BME280;34928;37.302;-121.984;2023-05-01T05:46:17;100694.0;;;27.65;23.91
48644;BME280;34928;37.302;-121.984;2023-05-01T05:56:22;100694.0;;;27.86;23.83
48644;BME280;34928;37.302;-121.984;2023-05-01T06:06:28;100692.0;;;27.77;24.00
48644;BME280;34928;37.302;-121.984;2023-05-01T06:16:32;100685.0;;;27.66;23.86
48644;BME280;34928;37.302;-121.984;2023-05-01T06:26:38;100676.0;;;27.37;24.31
48644;BME280;34928;37.302;-121.984;2023-05-01T06:36:43;100668.0;;;27.56;23.17
48644;BME280;34928;37.302;-121.984;2023-05-01T06:46:47;100679.0;;;27.35;24.44
48644;BME280;34928;37.302;-121.984;2023-05-01T06:56:52;100666.0;;;27.29;24.50
48644;BME280;34928;37.302;-121.984;2023-05-01T07:06:58;100660.0;;;27.34;24.25
48644;BME280;34928;37.302;-121.984;2023-05-01T07:17:03;100658.0;;;27.30;24.16
48644;BME280;34928;37.302;-121.984;2023-05-01T07:27:08;100660.0;;;26.98;24.76
48644;BME280;34928;37.302;-121.984;2023-05-01T07:37:13;100649.0;;;27.25;24.46
48644;BME280;34928;37.302;-121.984;2023-05-01T07:47:19;100639.0;;;27.06;24.49
48644;BME280;34928;37.302;-121.984;2023-05-01T07:57:23;100635.0;;;27.30;24.45
48644;BME280;34928;37.302;-121.984;2023-05-01T08:07:28;100627.0;;;27.26;24.63
48644;BME280;34928;37.302;-121.984;2023-05-01T08:17:34;100605.0;;;26.95;24.57
48644;BME280;34928;37.302;-121.984;2023-05-01T08:27:39;100589.0;;;27.00;24.51
48644;BME280;34928;37.302;-121.984;2023-05-01T08:37:43;100583.0;;;26.87;24.56
48644;BME280;34928;37.302;-121.984;2023-05-01T08:47:49;100585.0;;;26.98;24.32
48644;BME280;34928;37.302;-121.984;2023-05-01T08:57:53;100566.0;;;26.66;24.56
48644;BME280;34928;37.302;-121.984;2023-05-01T09:07:58;100553.0;;;26.92;24.49
48644;BME280;34928;37.302;-121.984;2023-05-01T09:18:03;100534.0;;;26.84;24.50
48644;BME280;34928;37.302;-121.984;2023-05-01T09:28:07;100527.0;;;26.45;24.65
48644;BME280;34928;37.302;-121.984;2023-05-01T09:38:17;100526.0;;;26.39;24.90
48644;BME280;34928;37.302;-121.984;2023-05-01T09:48:24;100521.0;;;26.86;24.71
48644;BME280;34928;37.302;-121.984;2023-05-01T09:58:28;100501.0;;;26.47;24.80
48644;BME280;34928;37.302;-121.984;2023-05-01T10:08:45;100502.0;;;26.39;24.89
48644;BME280;34928;37.302;-121.984;2023-05-01T10:18:55;100498.0;;;26.42;24.82
48644;BME280;34928;37.302;-121.984;2023-05-01T10:29:04;100493.0;;;26.57;24.87
48644;BME280;34928;37.302;-121.984;2023-05-01T11:10:03;100477.0;;;25.86;25.13
48644;BME280;34928;37.302;-121.984;2023-05-01T11:30:42;100477.0;;;26.12;25.24
48644;BME280;34928;37.302;-121.984;2023-05-01T11:40:55;100475.0;;;25.74;25.12
48644;BME280;34928;37.302;-121.984;2023-05-01T11:51:12;100468.0;;;25.66;25.18
48644;BME280;34928;37.302;-121.984;2023-05-01T12:01:18;100476.0;;;25.93;25.14
48644;BME280;34928;37.302;-121.984;2023-05-01T12:11:23;100470.0;;;25.93;25.08
48644;BME280;34928;37.302;-121.984;2023-05-01T12:21:28;100465.0;;;25.85;25.11
48644;BME280;34928;37.302;-121.984;2023-05-01T12:31:33;100467.0;;;25.78;25.13
48644;BME280;34928;37.302;-121.984;2023-05-01T12:41:41;100456.0;;;25.84;25.19
48644;BME280;34928;37.302;-121.984;2023-05-01T12:51:54;100458.0;;;25.66;25.06
48644;BME280;34928;37.302;-121.984;2023-05-01T13:01:59;100460.0;;;25.51;25.18
48644;BME280;34928;37.302;-121.984;2023-05-01T13:12:05;100451.0;;;25.74;25.19
48644;BME280;34928;37.302;-121.984;2023-05-01T13:22:08;100454.0;;;25.77;25.15
48644;BME280;34928;37.302;-121.984;2023-05-01T13:32:13;100462.0;;;25.44;25.23
48644;BME280;34928;37.302;-121.984;2023-05-01T13:42:23;100462.0;;;25.80;25.18
48644;BME280;34928;37.302;-121.984;2023-05-01T13:52:28;100471.0;;;25.34;25.31
48644;BME280;34928;37.302;-121.984;2023-05-01T14:02:33;100467.0;;;25.51;25.57
48644;BME280;34928;37.302;-121.984;2023-05-01T14:12:43;100470.0;;;25.31;26.26
48644;BME280;34928;37.302;-121.984;2023-05-01T14:22:48;100471.0;;;25.47;25.81
48644;BME280;34928;37.302;-121.984;2023-05-01T14:32:54;100474.0;;;25.14;26.28
48644;BME280;34928;37.302;-121.984;2023-05-01T14:42:58;100475.0;;;25.17;25.69
48644;BME280;34928;37.302;-121.984;2023-05-01T14:53:03;100485.0;;;25.18;26.02
48644;BME280;34928;37.302;-121.984;2023-05-01T15:03:08;100489.0;;;25.10;26.02
48644;BME280;34928;37.302;-121.984;2023-05-01T15:13:14;100492.0;;;25.05;25.77
48644;BME280;34928;37.302;-121.984;2023-05-01T15:23:18;100494.0;;;25.38;24.94
48644;BME280;34928;37.302;-121.984;2023-05-01T15:33:23;100494.0;;;25.03;25.04
48644;BME280;34928;37.302;-121.984;2023-05-01T15:43:28;100493.0;;;25.49;25.04
48644;BME280;34928;37.302;-121.984;2023-05-01T15:53:32;100497.0;;;25.10;25.23
48644;BME280;34928;37.302;-121.984;2023-05-01T16:03:42;100500.0;;;25.18;25.15
48644;BME280;34928;37.302;-121.984;2023-05-01T16:13:48;100502.0;;;25.35;25.21
48644;BME280;34928;37.302;-121.984;2023-05-01T16:23:55;100510.0;;;24.88;25.23
48644;BME280;34928;37.302;-121.984;2023-05-01T16:34:05;100512.0;;;25.08;25.19
48644;BME280;34928;37.302;-121.984;2023-05-01T16:44:08;100513.0;;;25.03;25.18
48644;BME280;34928;37.302;-121.984;2023-05-01T16:54:13;100517.0;;;24.92;25.26
48644;BME280;34928;37.302;-121.984;2023-05-01T17:04:18;100507.0;;;25.12;25.27
48644;BME280;34928;37.302;-121.984;2023-05-01T17:14:24;100505.0;;;25.00;25.37
48644;BME280;34928;37.302;-121.984;2023-05-01T17:24:27;100496.0;;;24.97;25.25
48644;BME280;34928;37.302;-121.984;2023-05-01T17:34:33;100495.0;;;24.95;25.43
48644;BME280;34928;37.302;-121.984;2023-05-01T17:44:38;100496.0;;;24.95;25.42
48644;BME280;34928;37.302;-121.984;2023-05-01T17:54:43;100497.0;;;25.02;25.48
48644;BME280;34928;37.302;-121.984;2023-05-01T18:04:49;100491.0;;;25.46;25.54
48644;BME280;34928;37.302;-121.984;2023-05-01T18:14:53;100491.0;;;25.14;25.63
48644;BME280;34928;37.302;-121.984;2023-05-01T18:24:58;100497.0;;;25.08;25.80
48644;BME280;34928;37.302;-121.984;2023-05-01T18:35:04;100503.0;;;25.01;25.80
48644;BME280;34928;37.302;-121.984;2023-05-01T18:45:08;100497.0;;;24.97;25.68
48644;BME280;34928;37.302;-121.984;2023-05-01T18:55:13;100482.0;;;25.35;25.47
48644;BME280;34928;37.302;-121.984;2023-05-01T19:05:18;100476.0;;;25.40;25.36
48644;BME280;34928;37.302;-121.984;2023-05-01T19:15:23;100473.0;;;25.51;25.22
48644;BME280;34928;37.302;-121.984;2023-05-01T19:25:28;100463.0;;;25.40;25.30
48644;BME280;34928;37.302;-121.984;2023-05-01T19:35:33;100451.0;;;25.39;25.06
48644;BME280;34928;37.302;-121.984;2023-05-01T19:45:37;100437.0;;;25.71;24.78
48644;BME280;34928;37.302;-121.984;2023-05-01T19:55:43;100435.0;;;25.59;25.22
48644;BME280;34928;37.302;-121.984;2023-05-01T20:05:48;100427.0;;;25.46;25.27
48644;BME280;34928;37.302;-121.984;2023-05-01T20:15:53;100428.0;;;26.09;25.10
48644;BME280;34928;37.302;-121.984;2023-05-01T20:25:58;100420.0;;;25.85;25.12
48644;BME280;34928;37.302;-121.984;2023-05-01T20:36:03;100424.0;;;25.98;24.95
48644;BME280;34928;37.302;-121.984;2023-05-01T20:46:08;100416.0;;;26.03;24.91
48644;BME280;34928;37.302;-121.984;2023-05-01T20:56:12;100413.0;;;26.06;24.85
48644;BME280;34928;37.302;-121.984;2023-05-01T21:06:18;100424.0;;;25.69;24.87
48644;BME280;34928;37.302;-121.984;2023-05-01T21:16:23;100427.0;;;25.99;24.79
48644;BME280;34928;37.302;-121.984;2023-05-01T21:26:28;100419.0;;;25.80;24.94
48644;BME280;34928;37.302;-121.984;2023-05-01T21:36:41;100414.0;;;26.03;24.70
48644;BME280;34928;37.302;-121.984;2023-05-01T21:46:49;100414.0;;;26.49;24.36
48644;BME280;34928;37.302;-121.984;2023-05-01T21:56:58;100409.0;;;26.04;24.41
48644;BME280;34928;37.302;-121.984;2023-05-01T22:07:03;100399.0;;;26.25;24.31
48644;BME280;34928;37.302;-121.984;2023-05-01T22:17:13;100388.0;;;26.14;24.40
48644;BME280;34928;37.302;-121.984;2023-05-01T22:27:18;100385.0;;;25.99;24.78
48644;BME280;34928;37.302;-121.984;2023-05-01T22:37:23;100371.0;;;26.17;24.26
48644;BME280;34928;37.302;-121.984;2023-05-01T22:47:27;100364.0;;;26.27;24.56
48644;BME280;34928;37.302;-121.984;2023-05-01T22:57:33;100361.0;;;26.28;24.85
48644;BME280;34928;37.302;-121.984;2023-05-01T23:07:37;100357.0;;;26.83;24.77
48644;BME280;34928;37.302;-121.984;2023-05-01T23:17:43;100355.0;;;26.76;24.55
48644;BME280;34928;37.302;-121.984;2023-05-01T23:27:50;100353.0;;;26.44;24.69
48644;BME280;34928;37.302;-121.984;2023-05-01T23:37:57;100350.0;;;26.68;24.54
48644;BME280;34928;37.302;-121.984;2023-05-01T23:48:03;100348.0;;;26.58;24.51
48644;BME280;34928;37.302;-121.984;2023-05-01T23:58:09;100351.0;;;26.46;24.52
